createdAt,value
2022-11-18T00:01:43.321Z,96215.94
2022-11-18T00:04:27.155Z,96213.44
2022-11-18T00:06:54.204Z,96211.78
2022-11-18T00:09:21.452Z,96217.28
2022-11-18T00:12:07.388Z,96213.00
2022-11-18T00:14:34.398Z,96208.72
2022-11-18T00:17:06.145Z,96211.50
2022-11-18T00:19:38.371Z,96211.22
2022-11-18T00:22:07.280Z,96212.59
2022-11-18T00:24:35.073Z,96210.66
2022-11-18T00:27:02.244Z,96212.59
2022-11-18T00:29:29.568Z,96212.72
2022-11-18T00:31:57.490Z,96201.56
2022-11-18T00:34:25.805Z,96206.53
2022-11-18T00:36:52.995Z,96203.50
2022-11-18T00:39:21.389Z,96206.13
2022-11-18T00:42:08.250Z,96206.63
2022-11-18T00:44:35.337Z,96215.28
2022-11-18T00:47:02.478Z,96209.25
2022-11-18T00:49:29.679Z,96207.59
2022-11-18T00:51:56.885Z,96211.28
2022-11-18T00:54:24.111Z,96211.16
2022-11-18T00:56:51.281Z,96202.91
2022-11-18T00:59:18.746Z,96212.91
2022-11-18T01:01:46.197Z,96209.19
2022-11-18T01:04:13.512Z,96196.25
2022-11-18T01:06:41.292Z,96208.06
2022-11-18T01:09:08.369Z,96204.47
2022-11-18T01:11:53.970Z,96202.84
2022-11-18T01:14:21.244Z,96200.91
2022-11-18T01:16:51.520Z,96198.56
2022-11-18T01:19:19.445Z,96193.34
2022-11-18T01:21:47.161Z,96195.13
2022-11-18T01:24:14.200Z,96190.16
2022-11-18T01:26:41.453Z,96192.91
2022-11-18T01:29:08.936Z,96186.88
2022-11-18T01:31:45.508Z,96182.63
2022-11-18T01:34:22.438Z,96181.34
2022-11-18T01:36:49.445Z,96179.72
2022-11-18T01:39:16.787Z,96172.16
2022-11-18T01:41:43.903Z,96179.34
2022-11-18T01:44:48.812Z,96170.41
2022-11-18T01:47:15.981Z,96169.66
2022-11-18T01:49:46.572Z,96172.91
2022-11-18T01:52:15.169Z,96171.28
2022-11-18T01:54:48.545Z,96168.84
2022-11-18T01:57:20.466Z,96165.81
2022-11-18T01:59:50.917Z,96163.31
2022-11-18T02:02:18.384Z,96158.09
2022-11-18T02:04:49.230Z,96162.13
2022-11-18T02:07:17.695Z,96158.31
2022-11-18T02:09:45.241Z,96151.75
2022-11-18T02:12:13.370Z,96160.13
2022-11-18T02:14:45.838Z,96153.03
2022-11-18T02:17:55.374Z,96152.06
2022-11-18T02:20:31.639Z,96150.41
2022-11-18T02:23:16.916Z,96158.91
2022-11-18T02:26:02.584Z,96148.75
2022-11-18T02:28:37.732Z,96150.28
2022-11-18T02:31:24.121Z,96159.31
2022-11-18T02:34:22.927Z,96145.94
2022-11-18T02:37:28.819Z,96153.81
2022-11-18T02:40:00.383Z,96144.00
2022-11-18T02:42:30.973Z,96150.47
2022-11-18T02:45:04.056Z,96159.00
2022-11-18T02:47:33.782Z,96151.69
2022-11-18T02:50:06.472Z,96154.91
2022-11-18T02:52:35.990Z,96156.88
2022-11-18T02:55:07.881Z,96154.03
2022-11-18T02:57:36.579Z,96166.47
2022-11-18T03:00:04.735Z,96165.13
2022-11-18T03:02:43.488Z,96158.88
2022-11-18T03:05:18.676Z,96164.41
2022-11-18T03:07:50.894Z,96158.94
2022-11-18T03:10:21.938Z,96150.16
2022-11-18T03:13:08.433Z,96165.53
2022-11-18T03:15:42.108Z,96152.31
2022-11-18T03:18:46.106Z,96161.97
2022-11-18T03:21:36.079Z,96152.09
2022-11-18T03:24:17.505Z,96149.25
2022-11-18T03:26:55.114Z,96152.59
2022-11-18T03:29:27.874Z,96149.03
2022-11-18T03:32:02.553Z,96154.47
2022-11-18T03:34:42.719Z,96149.84
2022-11-18T03:37:18.137Z,96142.41
2022-11-18T03:39:53.949Z,96144.63
2022-11-18T03:42:34.142Z,96143.47
2022-11-18T03:45:15.057Z,96144.00
2022-11-18T03:47:48.162Z,96148.13
2022-11-18T03:50:27.372Z,96144.13
2022-11-18T03:52:55.839Z,96152.88
2022-11-18T03:55:30.612Z,96147.44
2022-11-18T03:58:20.375Z,96148.63
2022-11-18T04:00:52.234Z,96152.75
2022-11-18T04:03:19.789Z,96156.88
2022-11-18T04:05:50.837Z,96164.84
2022-11-18T04:08:25.081Z,96165.19
2022-11-18T04:11:41.313Z,96162.47
2022-11-18T04:14:13.429Z,96166.28
2022-11-18T04:16:42.958Z,96155.53
2022-11-18T04:19:11.062Z,96156.50
2022-11-18T04:21:37.968Z,96165.00
2022-11-18T04:24:08.448Z,96164.56
2022-11-18T04:26:36.874Z,96154.81
2022-11-18T04:29:04.321Z,96151.78
2022-11-18T04:31:31.986Z,96159.84
2022-11-18T04:33:59.587Z,96154.13
2022-11-18T04:36:30.159Z,96158.63
2022-11-18T04:38:57.849Z,96160.53
2022-11-18T04:41:45.371Z,96172.34
2022-11-18T04:44:16.128Z,96168.78
2022-11-18T04:46:48.075Z,96163.44
2022-11-18T04:49:19.399Z,96166.06
2022-11-18T04:51:47.878Z,96169.38
2022-11-18T04:54:16.280Z,96160.16
2022-11-18T04:56:49.329Z,96170.44
2022-11-18T04:59:25.187Z,96173.31
2022-11-18T05:01:53.865Z,96168.41
2022-11-18T05:04:23.944Z,96171.81
2022-11-18T05:07:00.060Z,96168.69
2022-11-18T05:09:31.821Z,96171.00
2022-11-18T05:12:18.435Z,96169.22
2022-11-18T05:14:50.130Z,96175.72
2022-11-18T05:17:18.763Z,96175.00
2022-11-18T05:19:45.866Z,96168.97
2022-11-18T05:22:15.130Z,96169.78
2022-11-18T05:24:42.459Z,96170.72
2022-11-18T05:27:09.756Z,96177.72
2022-11-18T05:29:36.938Z,96169.81
2022-11-18T05:32:04.178Z,96178.56
2022-11-18T05:34:31.117Z,96166.97
2022-11-18T05:36:58.147Z,96174.66
2022-11-18T05:39:25.148Z,96173.59
2022-11-18T05:42:10.525Z,96176.66
2022-11-18T05:44:37.471Z,96178.28
2022-11-18T05:47:04.551Z,96173.09
2022-11-18T05:49:31.732Z,96179.97
2022-11-18T05:51:58.666Z,96167.63
2022-11-18T05:54:26.174Z,96166.00
2022-11-18T05:56:53.426Z,96174.38
2022-11-18T05:59:20.894Z,96176.47
2022-11-18T06:02:14.814Z,96178.53
2022-11-18T06:04:53.650Z,96169.03
2022-11-18T06:07:30.861Z,96168.34
2022-11-18T06:10:05.000Z,96180.84
2022-11-18T06:12:37.491Z,96175.16
2022-11-18T06:15:16.453Z,96177.03
2022-11-18T06:18:04.866Z,96180.75
2022-11-18T06:20:36.733Z,96171.78
2022-11-18T06:23:03.833Z,96177.19
2022-11-18T06:25:31.677Z,96176.47
2022-11-18T06:28:02.824Z,96178.81
2022-11-18T06:30:30.051Z,96177.59
2022-11-18T06:32:57.275Z,96179.72
2022-11-18T06:35:24.699Z,96175.09
2022-11-18T06:37:51.952Z,96187.47
2022-11-18T06:40:19.109Z,96191.47
2022-11-18T06:43:04.547Z,96193.69
2022-11-18T06:45:31.749Z,96194.16
2022-11-18T06:48:04.283Z,96197.06
2022-11-18T06:50:31.757Z,96185.19
2022-11-18T06:53:01.898Z,96182.22
2022-11-18T06:55:29.035Z,96176.16
2022-11-18T06:57:59.021Z,96186.06
2022-11-18T07:00:26.053Z,96189.28
2022-11-18T07:02:53.378Z,96183.16
2022-11-18T07:05:20.356Z,96180.44
2022-11-18T07:07:47.580Z,96172.34
2022-11-18T07:10:14.742Z,96177.75
2022-11-18T07:12:41.848Z,96175.56
2022-11-18T07:15:09.351Z,96173.91
2022-11-18T07:17:36.310Z,96178.56
2022-11-18T07:20:03.755Z,96168.19
2022-11-18T07:22:31.070Z,96175.97
2022-11-18T07:24:58.290Z,96167.38
2022-11-18T07:27:25.495Z,96169.97
2022-11-18T07:29:52.614Z,96164.31
2022-11-18T07:32:19.857Z,96166.38
2022-11-18T07:34:47.061Z,96156.56
2022-11-18T07:37:14.159Z,96164.06
2022-11-18T07:39:41.335Z,96143.56
2022-11-18T07:42:10.226Z,96143.41
2022-11-18T07:44:37.215Z,96138.63
2022-11-18T07:47:04.161Z,96129.19
2022-11-18T07:49:31.155Z,96134.50
2022-11-18T07:51:58.355Z,96137.38
2022-11-18T07:54:25.527Z,96131.63
2022-11-18T07:56:52.548Z,96133.31
2022-11-18T07:59:19.769Z,96123.72
2022-11-18T08:01:47.324Z,96122.88
2022-11-18T08:04:15.568Z,96124.44
2022-11-18T08:06:42.725Z,96112.69
2022-11-18T08:09:10.347Z,96116.88
2022-11-18T08:11:37.628Z,96117.56
2022-11-18T08:14:04.683Z,96115.34
2022-11-18T08:16:32.002Z,96104.88
2022-11-18T08:19:00.516Z,96107.75
2022-11-18T08:21:27.792Z,96106.34
2022-11-18T08:23:57.675Z,96101.25
2022-11-18T08:26:25.676Z,96100.66
2022-11-18T08:28:53.634Z,96099.41
2022-11-18T08:31:25.133Z,96096.91
2022-11-18T08:34:00.990Z,96113.63
2022-11-18T08:36:30.934Z,96113.25
2022-11-18T08:39:00.240Z,96106.31
2022-11-18T08:41:43.195Z,96093.72
2022-11-18T08:44:13.564Z,96096.19
2022-11-18T08:46:41.901Z,96107.72
2022-11-18T08:49:08.850Z,96096.44
2022-11-18T08:51:36.053Z,96097.59
2022-11-18T08:54:03.129Z,96097.13
2022-11-18T08:56:30.460Z,96095.47
2022-11-18T08:58:57.609Z,96091.59
2022-11-18T09:01:24.812Z,96092.88
2022-11-18T09:03:52.895Z,96075.84
2022-11-18T09:06:22.135Z,96077.75
2022-11-18T09:08:49.357Z,96068.41
2022-11-18T09:11:27.640Z,96063.34
2022-11-18T09:16:43.809Z,96061.44
2022-11-18T09:19:45.002Z,96045.13
2022-11-18T09:21:57.691Z,96042.72
2022-11-18T09:24:24.891Z,96037.38
2022-11-18T09:26:53.849Z,96040.66
2022-11-18T09:29:25.689Z,96028.59
2022-11-18T09:31:54.759Z,96028.59
2022-11-18T09:34:23.041Z,96012.03
2022-11-18T09:36:50.351Z,96003.03
2022-11-18T09:39:17.578Z,95999.97
2022-11-18T09:42:00.976Z,96001.59
2022-11-18T09:44:45.253Z,95992.75
2022-11-18T09:47:25.937Z,95992.16
2022-11-18T09:49:56.061Z,95977.75
2022-11-18T09:52:36.093Z,95967.31
2022-11-18T09:55:12.266Z,95958.88
2022-11-18T09:58:00.670Z,95951.28
2022-11-18T10:00:30.679Z,95948.81
2022-11-18T10:03:08.602Z,95937.75
2022-11-18T10:05:56.271Z,95935.00
2022-11-18T10:08:34.017Z,95944.91
2022-11-18T10:11:08.073Z,95933.59
2022-11-18T10:13:41.681Z,95928.84
2022-11-18T10:16:17.696Z,95924.28
2022-11-18T10:19:17.880Z,95921.47
2022-11-18T10:22:11.744Z,95919.56
2022-11-18T10:24:49.108Z,95907.00
2022-11-18T10:27:17.415Z,95903.91
2022-11-18T10:29:46.833Z,95882.91
2022-11-18T10:32:16.154Z,95882.75
2022-11-18T10:34:55.691Z,95871.50
2022-11-18T10:37:52.446Z,95872.25
2022-11-18T10:40:25.963Z,95864.84
2022-11-18T10:42:53.058Z,95848.34
2022-11-18T10:45:23.314Z,95846.66
2022-11-18T10:48:09.930Z,95848.28
2022-11-18T10:50:42.526Z,95848.03
2022-11-18T10:53:33.018Z,95841.69
2022-11-18T10:56:05.896Z,95840.84
2022-11-18T10:58:40.266Z,95833.47
2022-11-18T11:01:07.689Z,95847.34
2022-11-18T11:03:38.153Z,95851.06
2022-11-18T11:06:34.355Z,95847.00
2022-11-18T11:09:02.971Z,95846.78
2022-11-18T11:17:17.294Z,95841.84
2022-11-18T11:20:28.172Z,95848.34
2022-11-18T11:23:32.358Z,95847.53
2022-11-18T11:33:19.610Z,95818.66
2022-11-18T11:39:04.580Z,95826.34
2022-11-18T11:41:24.404Z,95816.63
2022-11-18T12:25:49.720Z,95804.59
2022-11-18T12:28:45.383Z,95807.56
2022-11-18T12:31:18.417Z,95805.47
2022-11-18T12:34:02.299Z,95803.28
2022-11-18T12:36:31.001Z,95807.34
2022-11-18T12:38:59.250Z,95807.72
2022-11-18T12:42:04.720Z,95804.75
2022-11-18T12:44:31.657Z,95804.72
2022-11-18T12:47:02.936Z,95810.78
2022-11-18T12:49:29.934Z,95805.25
2022-11-18T12:51:59.513Z,95807.13
2022-11-18T12:54:37.091Z,95809.41
2022-11-18T12:57:24.276Z,95805.56
2022-11-18T12:59:51.015Z,95812.84
2022-11-18T13:02:27.989Z,95809.81
2022-11-18T13:05:28.071Z,95812.13
2022-11-18T13:08:16.178Z,95800.16
2022-11-18T13:11:16.815Z,95780.69
2022-11-18T13:13:45.598Z,95782.09
2022-11-18T13:16:42.229Z,95773.75
2022-11-18T13:19:10.486Z,95782.53
2022-11-18T13:21:56.401Z,95775.06
2022-11-18T13:24:23.710Z,95781.47
2022-11-18T13:26:59.388Z,95768.16
2022-11-18T13:29:54.106Z,95765.31
2022-11-18T13:32:27.607Z,95764.28
2022-11-18T13:35:05.593Z,95767.06
2022-11-18T13:37:34.525Z,95753.16
2022-11-18T13:40:01.649Z,95747.44
2022-11-18T13:42:30.633Z,95752.06
2022-11-18T13:44:59.745Z,95750.59
2022-11-18T13:47:41.788Z,95755.72
2022-11-18T13:50:11.432Z,95752.88
2022-11-18T13:52:56.403Z,95749.19
2022-11-18T13:55:28.070Z,95755.72
2022-11-18T13:58:24.236Z,95752.88
2022-11-18T14:01:03.925Z,95754.06
2022-11-18T14:03:51.172Z,95760.31
2022-11-18T14:06:38.992Z,95764.63
2022-11-18T14:09:15.023Z,95765.22
2022-11-18T14:11:44.434Z,95760.31
2022-11-18T14:14:14.411Z,95763.16
2022-11-18T14:16:42.645Z,95761.31
2022-11-18T14:19:31.050Z,95749.63
2022-11-18T14:22:15.141Z,95728.63
2022-11-18T14:24:43.527Z,95729.03
2022-11-18T14:27:39.513Z,95730.50
2022-11-18T14:30:30.885Z,95728.69
2022-11-18T14:33:12.205Z,95711.75
2022-11-18T14:35:41.241Z,95698.69
2022-11-18T14:41:10.944Z,95713.91
2022-11-18T14:43:38.886Z,95699.63
2022-11-18T14:46:14.740Z,95696.44
2022-11-18T14:48:42.476Z,95699.31
2022-11-18T14:51:14.847Z,95701.34
2022-11-18T14:53:42.961Z,95686.47
2022-11-18T14:56:24.587Z,95676.66
2022-11-18T14:58:51.774Z,95675.69
2022-11-18T15:01:19.312Z,95664.69
2022-11-18T15:03:46.515Z,95672.84
2022-11-18T15:06:18.762Z,95698.16
2022-11-18T15:08:48.109Z,95701.84
2022-11-18T15:11:16.273Z,95705.53
2022-11-18T15:13:43.357Z,95710.59
2022-11-18T15:16:18.764Z,95713.28
2022-11-18T15:18:48.681Z,95719.59
2022-11-18T15:21:16.763Z,95723.06
2022-11-18T15:23:44.507Z,95710.81
2022-11-18T15:26:25.431Z,95690.19
2022-11-18T15:28:54.773Z,95688.97
2022-11-18T15:31:24.537Z,95683.94
2022-11-18T15:33:52.726Z,95700.47
2022-11-18T15:36:24.969Z,95703.13
2022-11-18T15:38:53.734Z,95699.88
2022-11-18T15:41:26.754Z,95696.59
2022-11-18T15:43:55.789Z,95699.88
2022-11-18T15:46:24.918Z,95698.66
2022-11-18T15:48:53.733Z,95707.03
2022-11-18T15:51:21.583Z,95703.34
2022-11-18T15:53:48.408Z,95702.75
2022-11-18T15:56:21.851Z,95717.44
2022-11-18T15:59:02.314Z,95714.56
2022-11-18T16:01:34.972Z,95720.66
2022-11-18T16:04:02.913Z,95702.75
2022-11-18T16:06:30.180Z,95717.00
2022-11-18T16:09:00.013Z,95721.06
2022-11-18T16:11:47.347Z,95719.66
2022-11-18T16:14:17.415Z,95727.41
2022-11-18T16:16:46.850Z,95726.38
2022-11-18T16:19:17.213Z,95739.00
2022-11-18T16:21:47.828Z,95736.94
2022-11-18T16:24:21.742Z,95746.94
2022-11-18T16:26:50.211Z,95747.16
2022-11-18T16:29:18.963Z,95742.69
2022-11-18T16:31:51.696Z,95735.13
2022-11-18T16:34:28.000Z,95725.78
2022-11-18T16:37:02.529Z,95733.72
2022-11-18T16:39:30.575Z,95727.59
2022-11-18T16:42:07.275Z,95725.16
2022-11-18T16:44:37.259Z,95725.97
2022-11-18T16:47:13.894Z,95716.78
2022-11-18T16:49:42.916Z,95714.94
2022-11-18T16:52:10.433Z,95730.25
2022-11-18T16:54:44.440Z,95714.53
2022-11-18T16:57:13.197Z,95713.31
2022-11-18T16:59:40.507Z,95708.00
2022-11-18T17:02:07.911Z,95709.22
2022-11-18T17:04:37.526Z,95699.84
2022-11-18T17:07:05.495Z,95701.09
2022-11-18T17:09:33.150Z,95689.69
2022-11-18T17:12:01.659Z,95689.44
2022-11-18T17:14:31.944Z,95679.88
2022-11-18T17:17:25.250Z,95681.09
2022-11-18T17:19:55.353Z,95675.56
2022-11-18T17:22:24.176Z,95681.91
2022-11-18T17:24:51.628Z,95688.81
2022-11-18T17:27:19.448Z,95687.63
2022-11-18T17:29:46.407Z,95679.06
2022-11-18T17:32:14.242Z,95675.22
2022-11-18T17:34:41.449Z,95681.09
2022-11-18T17:37:09.710Z,95675.00
2022-11-18T17:39:36.882Z,95662.97
2022-11-18T17:42:18.018Z,95670.09
2022-11-18T17:44:48.883Z,95686.81
2022-11-18T17:47:17.416Z,95696.19
2022-11-18T17:49:45.291Z,95693.31
2022-11-18T17:52:12.525Z,95697.00
2022-11-18T17:54:39.540Z,95697.81
2022-11-18T17:57:06.472Z,95702.72
2022-11-18T17:59:33.563Z,95707.03
2022-11-18T18:02:00.601Z,95715.78
2022-11-18T18:04:27.939Z,95724.75
2022-11-18T18:06:55.436Z,95728.81
2022-11-18T18:09:30.581Z,95730.03
2022-11-18T18:11:59.905Z,95737.41
2022-11-18T18:14:27.019Z,95743.09
2022-11-18T18:16:54.548Z,95744.72
2022-11-18T18:19:23.785Z,95746.34
2022-11-18T18:21:50.836Z,95742.06
2022-11-18T18:24:20.325Z,95743.69
2022-11-18T18:26:47.870Z,95746.38
2022-11-18T18:29:15.042Z,95740.25
2022-11-18T18:31:42.172Z,95738.81
2022-11-18T18:34:09.192Z,95728.81
2022-11-18T18:36:36.264Z,95742.69
2022-11-18T18:39:03.713Z,95748.38
2022-11-18T18:41:31.321Z,95751.84
2022-11-18T18:43:58.449Z,95740.56
2022-11-18T18:46:30.347Z,95734.44
2022-11-18T18:49:15.145Z,95729.50
2022-11-18T18:51:44.699Z,95737.97
2022-11-18T18:54:13.761Z,95739.97
2022-11-18T18:56:41.370Z,95737.88
2022-11-18T18:59:09.767Z,95731.78
2022-11-18T19:01:39.459Z,95742.09
2022-11-18T19:04:07.893Z,95741.63
2022-11-18T19:06:58.996Z,95740.50
2022-11-18T19:09:25.120Z,95751.09
2022-11-18T19:12:11.899Z,95757.16
2022-11-18T19:14:39.219Z,95763.22
2022-11-18T19:17:10.716Z,95744.59
2022-11-18T19:19:58.502Z,95755.66
2022-11-18T19:22:26.057Z,95757.31
2022-11-18T19:24:53.961Z,95763.13
2022-11-18T19:27:22.154Z,95762.03
2022-11-18T19:29:49.439Z,95757.50
2022-11-18T19:32:17.272Z,95755.44
2022-11-18T19:34:44.536Z,95738.13
2022-11-18T19:37:11.662Z,95753.19
2022-11-18T19:39:38.901Z,95750.47
2022-11-18T19:42:06.127Z,95755.44
2022-11-18T19:44:33.327Z,95765.50
2022-11-18T19:47:00.362Z,95769.59
2022-11-18T19:49:27.573Z,95766.75
2022-11-18T19:51:54.721Z,95768.22
2022-11-18T19:54:22.273Z,95766.31
2022-11-18T19:56:49.630Z,95768.53
2022-11-18T19:59:17.436Z,95781.78
2022-11-18T20:01:45.738Z,95777.38
2022-11-18T20:04:13.006Z,95776.06
2022-11-18T20:06:40.955Z,95776.78
2022-11-18T20:09:10.441Z,95777.22
2022-11-18T20:11:39.350Z,95771.72
2022-11-18T20:14:09.061Z,95773.34
2022-11-18T20:16:38.554Z,95783.91
2022-11-18T20:19:17.849Z,95790.41
2022-11-18T20:21:48.822Z,95781.69
2022-11-18T20:24:19.576Z,95790.28
2022-11-18T20:26:47.699Z,95779.72
2022-11-18T20:29:16.215Z,95783.09
2022-11-18T20:31:44.412Z,95795.25
2022-11-18T20:34:15.564Z,95791.59
2022-11-18T20:36:43.113Z,95804.16
2022-11-18T20:39:22.783Z,95797.31
2022-11-18T20:42:10.061Z,95811.19
2022-11-18T20:44:37.686Z,95820.59
2022-11-18T20:47:05.799Z,95818.19
2022-11-18T20:49:34.098Z,95821.97
2022-11-18T20:52:02.504Z,95830.50
2022-11-18T20:54:30.683Z,95828.97
2022-11-18T20:57:00.229Z,95831.31
2022-11-18T20:59:28.727Z,95831.91
2022-11-18T21:02:06.586Z,95833.16
2022-11-18T21:04:34.616Z,95853.44
2022-11-18T21:07:02.049Z,95871.13
2022-11-18T21:09:33.418Z,95869.06
2022-11-18T21:12:01.281Z,95870.88
2022-11-18T21:14:28.740Z,95883.66
2022-11-18T21:17:00.891Z,95885.09
2022-11-18T21:19:29.531Z,95893.41
2022-11-18T21:21:57.613Z,95888.03
2022-11-18T21:24:29.247Z,95887.81
2022-11-18T21:26:58.084Z,95899.97
2022-11-18T21:29:28.187Z,95908.41
2022-11-18T21:31:55.680Z,95917.31
2022-11-18T21:34:23.364Z,95919.41
2022-11-18T21:36:54.639Z,95920.88
2022-11-18T21:39:25.835Z,95921.19
2022-11-18T21:41:56.724Z,95899.22
2022-11-18T21:44:25.935Z,95893.69
2022-11-18T21:46:53.712Z,95898.72
2022-11-18T21:49:21.246Z,95910.00
2022-11-18T21:51:49.034Z,95918.50
2022-11-18T21:54:18.531Z,95904.03
2022-11-18T21:56:45.996Z,95912.84
2022-11-18T21:59:13.388Z,95929.06
2022-11-18T22:01:40.749Z,95929.78
2022-11-18T22:04:08.101Z,95933.78
2022-11-18T22:06:36.329Z,95928.06
2022-11-18T22:09:04.889Z,95930.25
2022-11-18T22:11:32.450Z,95925.16
2022-11-18T22:13:59.928Z,95928.78
2022-11-18T22:16:28.033Z,95931.59
2022-11-18T22:19:00.343Z,95938.88
2022-11-18T22:21:31.079Z,95935.63
2022-11-18T22:24:00.485Z,95932.53
2022-11-18T22:26:29.113Z,95940.25
2022-11-18T22:28:58.096Z,95943.25
2022-11-18T22:31:26.546Z,95929.88
2022-11-18T22:33:54.962Z,95928.69
2022-11-18T22:36:24.715Z,95926.25
2022-11-18T22:38:52.006Z,95929.06
2022-11-18T22:41:39.260Z,95932.06
2022-11-18T22:44:08.664Z,95937.34
2022-11-18T22:46:37.463Z,95940.53
2022-11-18T22:49:05.803Z,95927.78
2022-11-18T22:51:34.171Z,95942.31
2022-11-18T22:54:37.795Z,95952.41
2022-11-18T22:56:48.661Z,95953.25
2022-11-18T22:59:16.540Z,95961.19
2022-11-18T23:01:44.587Z,95969.81
2022-11-18T23:04:11.859Z,95964.88
2022-11-18T23:06:39.695Z,95968.53
2022-11-18T23:09:07.007Z,95974.50
2022-11-18T23:11:52.564Z,95979.69
2022-11-18T23:14:19.726Z,95982.50
2022-11-18T23:16:46.977Z,95981.69
2022-11-18T23:19:16.475Z,95987.44
2022-11-18T23:21:44.730Z,95988.03
2022-11-18T23:24:13.636Z,95994.31
2022-11-18T23:26:41.453Z,95984.06
2022-11-18T23:29:08.959Z,95997.31
2022-11-18T23:31:36.474Z,96010.94
2022-11-18T23:34:03.617Z,96015.38
2022-11-18T23:36:30.750Z,96030.91
2022-11-18T23:38:58.183Z,96018.34
2022-11-18T23:41:25.438Z,96022.78
2022-11-18T23:43:53.764Z,96036.97
2022-11-18T23:46:21.307Z,96024.94
2022-11-18T23:48:48.760Z,96033.34
2022-11-18T23:51:23.658Z,96043.22
2022-11-18T23:53:56.943Z,96058.19
2022-11-18T23:56:26.683Z,96057.63
2022-11-18T23:58:55.858Z,96054.06
